Hlavní strana
METAR-TAF:

METAR-TAF

Letiště :

Miho-Yonago, Japonsko

zeměpisná šířka: 35-29N, zeměpisná délka: 133-15E, výška: 6 m

Aktuální stav počasí

Zpráva byla vytvořena před 1 hodinou a 9 minutami, v 08:00 UTC
Severovýchodní vítr 7 kt
Teplota 11°C
Vlhkost vzduchu 47%
Tlak 1024 hPa
Viditelnost 10 km a více
Skoro jasno ve výšce 3000 ft

METAR: RJOH 100800Z 04007KT 9999 FEW030 11/M00 Q1024

Čas: 18:09 (09:09 UTC)

Předpověď počasí

Zpráva byla vytvořena před 4 hodinami a 1 minutami, v 05:08 UTC
Předpověď platná od 10 v 06 UTC do 11 v 12 UTC
Severoseverovýchodní vítr 7 kt
Viditelnost 10 km a více
Skoro jasno ve výšce 3000 ft
Oblačno až skoro zataženo ve výšce 4000 ft
Změna
od 10 v 12 UTC do 10 v 14 UTC
Jižní vítr 5 kt
Změna
od 11 v 03 UTC do 11 v 06 UTC
Severoseverovýchodní vítr 5 kt
Změna
od 11 v 09 UTC do 11 v 12 UTC
Jižní vítr 4 kt

TAF: RJOH 100508Z 1006/1112 03007KT 9999 FEW030 BKN040 BECMG 1012/1014 18005KT BECMG 1103/1106 02005KT BECMG 1109/1112 18004KT

Stav a předpovědi počasí z více než 4 000 letišť (zprávy METAR a TAF).

Červené a žluté tečky na mapě představují dostupné meteorologické stanice.

Když kurzor umístíte na tečku, zobrazí se název stanice.

Pak kliknutím zobrazíte stav a předpověď počasí.

Chcete-li změnit mapu, kliknutím na zelené tlačítko se znaménkem +mapu přiblížíte, kliknutím na zelené tlačítko se znaménkem – mapu oddálíte a kliknutím na zelené šipky přejdete na sousední mapy.


METAR-TAF: